Time;durP1;ratioP1;P1;durP2;ratioP2;P2;SDS_P1;SDS_P2;PMS_P1;PMS_P2;Temp;Humidity;BMP_temperature;BMP_pressure;BME280_temperature;BME280_humidity;BME280_pressure;Samples;Min_cycle;Max_cycle;Signal;HPM_P1;HPM_P2
2022/10/29 00:01:15;;;;;;;11.03;5.03;;;;;;;20.74;71.44;100997.84;5016434;28;20227;-74
2022/10/29 00:03:40;;;;;;;9.63;4.67;;;;;;;20.74;71.40;101002.72;5038846;28;20191;-73
2022/10/29 00:06:08;;;;;;;7.83;4.40;;;;;;;20.75;71.46;100995.78;5036131;28;20176;-74
2022/10/29 00:08:35;;;;;;;8.47;3.90;;;;;;;20.73;71.33;100990.41;5036098;28;20168;-74
2022/10/29 00:11:09;;;;;;;8.00;4.20;;;;;;;20.73;71.25;101003.94;5038963;28;20418;-74
2022/10/29 00:13:34;;;;;;;10.43;5.07;;;;;;;20.72;71.24;100994.50;5038115;28;20419;-74
2022/10/29 00:16:04;;;;;;;7.83;4.57;;;;;;;20.73;71.42;101001.88;5036550;28;20457;-74
2022/10/29 00:18:29;;;;;;;8.27;4.43;;;;;;;20.72;71.43;100990.81;5069365;28;20539;-74
2022/10/29 00:21:09;;;;;;;7.33;4.27;;;;;;;20.72;71.43;100987.94;5041071;28;20423;-74
2022/10/29 00:23:34;;;;;;;13.27;4.93;;;;;;;20.71;71.37;100984.22;5019757;28;20219;-74
2022/10/29 00:26:00;;;;;;;7.37;4.47;;;;;;;20.70;71.15;100976.84;5002078;28;20419;-73
2022/10/29 00:28:26;;;;;;;7.30;3.70;;;;;;;20.72;71.44;100977.28;5021355;28;20235;-74
2022/10/29 00:30:52;;;;;;;7.03;4.07;;;;;;;20.71;71.03;100987.09;5036457;28;20497;-74
2022/10/29 00:33:17;;;;;;;11.33;4.47;;;;;;;20.71;71.36;100989.97;5036619;28;20934;-74
2022/10/29 00:35:54;;;;;;;9.47;4.80;;;;;;;20.70;71.21;100984.59;5018783;28;20291;-74
2022/10/29 00:38:19;;;;;;;9.30;4.57;;;;;;;20.70;71.43;100994.06;5036464;28;20191;-74
2022/10/29 00:40:44;;;;;;;8.50;4.10;;;;;;;20.69;71.26;100995.28;5035982;28;20412;-74
2022/10/29 00:43:14;;;;;;;7.93;3.80;;;;;;;20.69;71.31;100989.53;5037037;28;20183;-74
2022/10/29 00:46:23;;;;;;;8.33;4.30;;;;;;;20.69;71.30;100998.16;5037019;28;20492;-74
2022/10/29 00:48:50;;;;;;;7.03;4.03;;;;;;;20.69;71.35;100995.28;4998329;28;20917;-74
2022/10/29 00:51:15;;;;;;;7.93;4.37;;;;;;;20.68;71.02;100993.59;5030744;28;20430;-74
2022/10/29 00:53:45;;;;;;;7.10;4.10;;;;;;;20.69;70.90;100991.56;5036482;28;20408;-74
2022/10/29 00:56:10;;;;;;;8.00;4.00;;;;;;;20.69;71.07;100982.94;5017919;28;20212;-74
2022/10/29 00:58:35;;;;;;;8.37;4.60;;;;;;;20.67;71.04;100986.19;5018427;28;20922;-74
2022/10/29 01:01:01;;;;;;;8.63;4.43;;;;;;;20.68;70.92;100987.84;5034479;28;20232;-74
2022/10/29 01:03:26;;;;;;;8.07;4.10;;;;;;;20.70;71.07;100987.47;5037607;28;20187;-74
2022/10/29 01:05:52;;;;;;;7.17;3.80;;;;;;;20.68;71.16;100987.03;5038386;28;20180;-74
2022/10/29 01:08:17;;;;;;;5.20;3.40;;;;;;;20.67;71.28;100991.94;5018876;28;20204;-74
2022/10/29 01:10:49;;;;;;;10.63;4.27;;;;;;;20.66;71.20;100984.53;5047354;28;20181;-74
2022/10/29 01:13:26;;;;;;;7.27;3.50;;;;;;;20.66;71.33;100987.41;5036476;28;20601;-74
2022/10/29 01:16:13;;;;;;;9.10;4.37;;;;;;;20.65;71.05;100982.88;5036839;28;20430;-74
2022/10/29 01:18:44;;;;;;;7.80;3.90;;;;;;;20.64;71.33;100986.97;5035973;28;20473;-74
2022/10/29 01:21:21;;;;;;;8.00;4.33;;;;;;;20.66;71.25;100978.81;5036697;28;20426;-74
2022/10/29 01:23:53;;;;;;;10.03;4.13;;;;;;;20.66;70.86;100977.97;5036060;28;20417;-74
2022/10/29 01:26:34;;;;;;;6.97;3.93;;;;;;;20.65;71.30;100977.16;5035835;28;20415;-74
2022/10/29 01:29:09;;;;;;;7.10;4.17;;;;;;;20.66;71.14;100978.81;5037470;28;20419;-74
2022/10/29 01:31:42;;;;;;;7.73;3.53;;;;;;;20.65;71.16;100971.41;5034627;28;20462;-74
2022/10/29 01:34:12;;;;;;;6.13;3.90;;;;;;;20.66;71.00;100973.06;5018017;28;20415;-74
2022/10/29 01:36:45;;;;;;;6.33;3.90;;;;;;;20.66;71.33;100972.22;5033519;28;20978;-74
2022/10/29 01:39:19;;;;;;;7.27;3.63;;;;;;;20.64;71.22;100971.78;5017196;28;20954;-74
2022/10/29 01:42:01;;;;;;;7.17;3.90;;;;;;;20.63;70.86;100973.81;5033385;28;20459;-74
2022/10/29 01:44:36;;;;;;;6.20;3.40;;;;;;;20.65;71.29;100967.69;5032591;28;20426;-74
2022/10/29 01:47:08;;;;;;;7.03;3.70;;;;;;;20.65;71.06;100970.56;5032179;28;20481;-73
2022/10/29 01:49:38;;;;;;;7.33;3.73;;;;;;;20.64;70.88;100972.63;5033920;28;20419;-73
2022/10/29 01:52:04;;;;;;;5.07;3.47;;;;;;;20.64;71.19;100963.19;5017986;28;20423;-74
2022/10/29 01:54:30;;;;;;;6.37;3.47;;;;;;;20.62;71.22;100960.69;5000505;28;20427;-73
2022/10/29 01:56:56;;;;;;;5.03;3.17;;;;;;;20.62;71.14;100957.81;5016646;28;20949;-74
2022/10/29 01:59:22;;;;;;;5.70;3.87;;;;;;;20.61;71.38;100953.28;5033129;28;20239;-74
2022/10/29 02:02:20;;;;;;;6.87;3.90;;;;;;;20.61;71.41;100950.41;5033594;28;20478;-74
2022/10/29 02:05:02;;;;;;;5.30;3.27;;;;;;;20.62;71.11;100954.94;5038066;28;20192;-73
2022/10/29 02:07:55;;;;;;;6.40;3.30;;;;;;;20.60;71.00;100943.03;5050047;28;20455;-73
2022/10/29 02:10:32;;;;;;;7.40;4.27;;;;;;;20.62;70.96;100942.66;5007496;28;20432;-74
2022/10/29 02:12:57;;;;;;;7.40;3.80;;;;;;;20.61;70.86;100946.72;5016589;28;20432;-74
2022/10/29 02:15:35;;;;;;;8.70;3.23;;;;;;;20.61;70.98;100940.97;5015435;28;20436;-74
2022/10/29 02:18:02;;;;;;;5.20;3.27;;;;;;;20.62;71.10;100939.78;5032759;28;20225;-74
2022/10/29 02:20:27;;;;;;;7.13;3.70;;;;;;;20.60;71.28;100940.16;5033458;28;20519;-74
2022/10/29 02:22:52;;;;;;;7.77;3.97;;;;;;;20.60;71.08;100933.56;5050421;28;20926;-74
2022/10/29 02:25:18;;;;;;;6.93;3.73;;;;;;;20.60;71.04;100930.72;5017313;28;20173;-74
2022/10/29 02:27:43;;;;;;;5.43;3.50;;;;;;;20.62;71.24;100931.19;5017527;28;20161;-74
2022/10/29 02:30:09;;;;;;;6.37;4.20;;;;;;;20.59;70.98;100929.06;5016357;28;20355;-74
2022/10/29 02:32:34;;;;;;;7.80;3.90;;;;;;;20.60;70.98;100922.94;5015553;28;20196;-74
2022/10/29 02:35:00;;;;;;;7.87;3.63;;;;;;;20.58;71.06;100922.47;5014692;28;20184;-74
2022/10/29 02:37:25;;;;;;;6.30;3.77;;;;;;;20.61;70.92;100916.00;5030496;28;20196;-74
2022/10/29 02:39:51;;;;;;;6.00;3.73;;;;;;;20.59;70.91;100921.28;5049790;28;20263;-74
2022/10/29 02:42:16;;;;;;;5.87;3.60;;;;;;;20.57;70.93;100917.94;5035031;28;20409;-74
2022/10/29 02:44:42;;;;;;;7.50;3.70;;;;;;;20.58;71.01;100913.06;5035340;28;20161;-74
2022/10/29 02:47:07;;;;;;;4.80;3.20;;;;;;;20.57;71.08;100912.22;5033698;28;20161;-74
2022/10/29 02:49:33;;;;;;;6.40;3.90;;;;;;;20.58;70.94;100907.31;5034036;28;20238;-74
2022/10/29 02:51:58;;;;;;;5.43;3.37;;;;;;;20.57;70.72;100900.75;5050077;28;20175;-74
2022/10/29 02:54:24;;;;;;;7.17;3.53;;;;;;;20.59;71.18;100904.06;5049992;28;20655;-74
2022/10/29 02:56:49;;;;;;;5.53;3.47;;;;;;;20.58;70.84;100908.13;5033214;28;20523;-74
2022/10/29 02:59:14;;;;;;;5.90;3.30;;;;;;;20.57;71.06;100906.47;5034895;28;20180;-74
2022/10/29 03:01:40;;;;;;;4.77;3.27;;;;;;;20.59;70.79;100904.06;5051376;28;20235;-74
2022/10/29 03:04:05;;;;;;;4.70;3.17;;;;;;;20.56;70.80;100896.22;5060947;28;20624;-74
2022/10/29 03:06:31;;;;;;;5.53;3.70;;;;;;;20.57;70.98;100903.59;5034353;28;20188;-74
2022/10/29 03:08:56;;;;;;;4.47;2.80;;;;;;;20.57;70.97;100899.94;5035782;28;20183;-74
2022/10/29 03:11:22;;;;;;;5.73;3.23;;;;;;;20.57;70.91;100897.88;5057473;28;20188;-74
2022/10/29 03:13:47;;;;;;;5.70;3.07;;;;;;;20.56;70.97;100886.78;5018836;28;20188;-74
2022/10/29 03:16:13;;;;;;;5.27;3.33;;;;;;;20.57;70.70;100895.00;5015145;28;20201;-74
2022/10/29 03:18:38;;;;;;;5.77;3.70;;;;;;;20.58;70.71;100885.19;5015758;28;20184;-74
2022/10/29 03:21:03;;;;;;;5.87;3.83;;;;;;;20.56;70.67;100881.88;5017091;28;20177;-74
2022/10/29 03:23:29;;;;;;;5.53;3.53;;;;;;;20.58;70.52;100878.63;5017490;28;20192;-74
2022/10/29 03:25:55;;;;;;;4.93;2.90;;;;;;;20.58;70.81;100884.38;4999045;28;20172;-74
2022/10/29 03:28:21;;;;;;;6.33;3.63;;;;;;;20.59;71.06;100884.00;5016001;28;20174;-74
2022/10/29 03:30:46;;;;;;;4.40;2.80;;;;;;;20.56;70.95;100881.88;4998608;28;20430;-74
2022/10/29 03:33:12;;;;;;;5.23;3.40;;;;;;;20.57;70.91;100876.97;5011956;28;20196;-74
2022/10/29 03:35:37;;;;;;;5.60;3.57;;;;;;;20.57;71.11;100883.53;5013584;28;20174;-74
2022/10/29 03:38:02;;;;;;;7.33;4.00;;;;;;;20.56;70.98;100893.34;5023931;28;20561;-74
2022/10/29 03:40:28;;;;;;;6.63;3.47;;;;;;;20.57;70.96;100886.41;5034644;28;20176;-74
2022/10/29 03:42:53;;;;;;;5.10;2.93;;;;;;;20.57;70.96;100883.53;5018835;28;20184;-74
2022/10/29 03:45:19;;;;;;;5.17;2.93;;;;;;;20.57;70.74;100886.41;5019165;28;20172;-74
2022/10/29 03:47:44;;;;;;;6.70;3.60;;;;;;;20.57;70.56;100886.41;5036205;28;20152;-74
2022/10/29 03:50:10;;;;;;;4.23;2.73;;;;;;;20.58;70.68;100881.50;5018905;28;20176;-74
2022/10/29 03:52:35;;;;;;;5.10;2.80;;;;;;;20.56;70.75;100887.63;5034019;28;20635;-74
2022/10/29 03:55:00;;;;;;;5.97;2.80;;;;;;;20.56;70.43;100899.09;5035514;28;20558;-74
2022/10/29 03:57:26;;;;;;;6.10;3.13;;;;;;;20.56;70.66;100893.34;5016091;28;20258;-74
2022/10/29 03:59:51;;;;;;;7.40;3.80;;;;;;;20.57;70.51;100897.88;5034242;28;20228;-74
2022/10/29 04:02:17;;;;;;;6.70;3.30;;;;;;;20.57;70.93;100897.88;5036883;28;20187;-74
2022/10/29 04:04:42;;;;;;;3.97;2.53;;;;;;;20.57;70.86;100895.00;5040598;28;20452;-74
2022/10/29 04:07:08;;;;;;;7.63;3.40;;;;;;;20.55;70.85;100890.84;5035539;28;20223;-74
2022/10/29 04:09:33;;;;;;;7.30;4.13;;;;;;;20.55;70.67;100890.84;5035520;28;20175;-74
2022/10/29 04:11:59;;;;;;;6.93;3.67;;;;;;;20.57;70.82;100889.25;5035937;28;20177;-74
2022/10/29 04:14:25;;;;;;;6.60;3.60;;;;;;;20.56;70.39;100887.63;5035687;28;20271;-74
2022/10/29 04:16:50;;;;;;;5.87;3.37;;;;;;;20.56;70.88;100895.38;5049905;28;20458;-74
2022/10/29 04:19:16;;;;;;;4.60;2.63;;;;;;;20.56;70.46;100893.34;5049755;28;20172;-74
2022/10/29 04:21:41;;;;;;;4.53;3.13;;;;;;;20.54;70.62;100900.69;5032833;28;20181;-74
2022/10/29 04:24:07;;;;;;;4.70;3.00;;;;;;;20.55;70.74;100908.06;5048725;28;20180;-74
2022/10/29 04:26:32;;;;;;;5.60;2.90;;;;;;;20.55;70.45;100908.06;5066096;28;20157;-74
2022/10/29 04:28:58;;;;;;;6.20;3.20;;;;;;;20.57;70.40;100912.22;5033310;28;20184;-74
2022/10/29 04:31:23;;;;;;;5.30;2.90;;;;;;;20.56;70.63;100916.31;5030861;28;20161;-74
2022/10/29 04:33:51;;;;;;;5.60;3.50;;;;;;;20.57;70.43;100920.00;5031691;28;20180;-75
2022/10/29 04:36:17;;;;;;;5.17;3.07;;;;;;;20.55;70.68;100914.66;5033502;28;20303;-74
2022/10/29 04:38:42;;;;;;;4.90;2.90;;;;;;;20.56;70.17;100927.78;5016780;28;20433;-74
2022/10/29 04:41:08;;;;;;;4.70;3.27;;;;;;;20.55;70.54;100920.38;5016369;28;20181;-74
2022/10/29 04:43:33;;;;;;;5.80;3.30;;;;;;;20.56;70.55;100921.19;5033802;28;20176;-74
2022/10/29 04:45:59;;;;;;;4.83;3.27;;;;;;;20.54;70.50;100920.75;5034189;28;20521;-74
2022/10/29 04:48:26;;;;;;;5.83;3.37;;;;;;;20.56;70.50;100919.16;5032799;28;20263;-74
2022/10/29 04:50:51;;;;;;;5.27;3.13;;;;;;;20.56;70.78;100915.47;5031731;28;20477;-74
2022/10/29 04:53:16;;;;;;;5.50;3.13;;;;;;;20.57;70.51;100917.16;5030657;28;20403;-75
2022/10/29 04:55:42;;;;;;;4.03;2.50;;;;;;;20.57;70.21;100905.66;5035769;28;20561;-74
2022/10/29 04:58:11;;;;;;;5.63;3.13;;;;;;;20.56;70.54;100910.56;5019954;28;20208;-74
2022/10/29 05:00:37;;;;;;;4.23;3.07;;;;;;;20.54;70.69;100900.69;5034571;28;20223;-74
2022/10/29 05:03:02;;;;;;;4.70;2.83;;;;;;;20.54;70.37;100901.53;5035937;28;20416;-74
2022/10/29 05:05:28;;;;;;;4.37;2.30;;;;;;;20.56;70.67;100890.47;5018910;28;20254;-75
2022/10/29 05:08:01;;;;;;;5.40;2.70;;;;;;;20.57;70.47;100894.19;5034889;28;20832;-75
2022/10/29 05:10:27;;;;;;;5.70;2.90;;;;;;;20.52;70.61;100898.19;5068214;28;20167;-75
2022/10/29 05:13:05;;;;;;;4.77;2.83;;;;;;;20.56;70.28;100899.09;5045435;28;20423;-75
2022/10/29 05:15:30;;;;;;;4.50;2.90;;;;;;;20.53;70.35;100896.97;5018321;28;20462;-75
2022/10/29 05:17:56;;;;;;;5.93;3.43;;;;;;;20.56;70.44;100898.25;5036706;28;20462;-74
2022/10/29 05:20:22;;;;;;;4.40;2.60;;;;;;;20.56;70.54;100901.97;5036381;28;20514;-74
2022/10/29 05:22:48;;;;;;;4.87;3.20;;;;;;;20.56;69.90;100901.13;5036152;28;20234;-74
2022/10/29 05:25:13;;;;;;;5.17;3.10;;;;;;;20.55;70.16;100894.56;5035449;28;20857;-75
2022/10/29 05:27:38;;;;;;;4.80;2.77;;;;;;;20.56;70.14;100892.50;5018374;28;20192;-75
2022/10/29 05:30:05;;;;;;;3.83;2.60;;;;;;;20.55;70.24;100891.69;5036161;28;20199;-75
2022/10/29 05:32:30;;;;;;;4.97;2.63;;;;;;;20.55;70.24;100900.31;5034791;28;20184;-74
2022/10/29 05:34:56;;;;;;;4.83;3.00;;;;;;;20.58;70.31;100901.59;5033314;28;20482;-75
2022/10/29 05:37:24;;;;;;;5.37;3.07;;;;;;;20.57;70.33;100897.06;5035001;28;20192;-74
2022/10/29 05:39:50;;;;;;;5.10;2.90;;;;;;;20.56;70.31;100906.84;5050118;28;20177;-74
2022/10/29 05:42:15;;;;;;;5.47;2.60;;;;;;;20.55;69.97;100900.31;5017412;28;20429;-75
2022/10/29 05:44:41;;;;;;;4.93;3.10;;;;;;;20.55;70.30;100906.03;5017280;28;20214;-75
2022/10/29 05:47:06;;;;;;;4.87;2.67;;;;;;;20.57;70.17;100899.94;5034124;28;20168;-74
2022/10/29 05:49:31;;;;;;;3.50;2.47;;;;;;;20.57;70.33;100903.59;5034887;28;20161;-75
2022/10/29 05:51:57;;;;;;;4.00;2.60;;;;;;;20.59;70.33;100903.25;5035723;28;20180;-74
2022/10/29 05:54:22;;;;;;;3.23;2.23;;;;;;;20.56;69.92;100901.97;5036087;28;20176;-74
2022/10/29 05:56:48;;;;;;;5.87;3.30;;;;;;;20.57;70.36;100899.94;5018999;28;20338;-74
2022/10/29 05:59:13;;;;;;;4.60;2.63;;;;;;;20.56;70.06;100904.81;5019225;28;20176;-75
2022/10/29 06:01:39;;;;;;;4.10;3.17;;;;;;;20.57;70.28;100911.41;5035278;28;20224;-74
2022/10/29 06:04:04;;;;;;;5.53;2.50;;;;;;;20.56;69.98;100912.59;5036348;28;20180;-74
2022/10/29 06:06:30;;;;;;;3.93;2.40;;;;;;;20.56;70.53;100903.97;5018256;28;20682;-75
2022/10/29 06:08:55;;;;;;;4.43;2.93;;;;;;;20.55;70.18;100903.16;4997540;28;20231;-75
2022/10/29 06:11:21;;;;;;;4.67;3.10;;;;;;;20.56;70.25;100913.44;5015740;28;20181;-74
2022/10/29 06:13:46;;;;;;;4.10;2.60;;;;;;;20.55;70.02;100902.34;5016116;28;20181;-74
2022/10/29 06:16:12;;;;;;;4.70;2.50;;;;;;;20.56;70.29;100910.56;5012032;28;20215;-74
2022/10/29 06:18:37;;;;;;;5.13;2.70;;;;;;;20.58;70.01;100910.19;4995173;28;20181;-74
2022/10/29 06:21:03;;;;;;;3.30;2.10;;;;;;;20.55;70.28;100911.78;5014135;28;20169;-75
2022/10/29 06:23:28;;;;;;;5.10;2.53;;;;;;;20.57;70.13;100914.28;4996798;28;20192;-75
2022/10/29 06:25:54;;;;;;;3.70;2.30;;;;;;;20.57;70.35;100912.22;5013808;28;20296;-74
2022/10/29 06:28:19;;;;;;;4.17;2.50;;;;;;;20.55;69.83;100908.91;5013733;28;20185;-75
2022/10/29 06:30:47;;;;;;;4.70;2.53;;;;;;;20.56;70.13;100910.56;4997069;28;20192;-75
2022/10/29 06:33:12;;;;;;;3.80;2.43;;;;;;;20.56;70.28;100916.31;5023197;28;20287;-74
2022/10/29 06:35:37;;;;;;;4.00;2.67;;;;;;;20.57;69.77;100920.81;5019929;28;20439;-74
2022/10/29 06:38:03;;;;;;;4.43;3.00;;;;;;;20.56;70.11;100921.19;5026152;28;20231;-75
2022/10/29 06:40:28;;;;;;;4.77;2.90;;;;;;;20.54;70.20;100918.72;5034455;28;20180;-75
2022/10/29 06:43:02;;;;;;;3.70;2.03;;;;;;;20.57;69.88;100923.69;5002682;28;20177;-75
2022/10/29 06:45:28;;;;;;;4.93;2.37;;;;;;;20.56;70.40;100918.31;5006740;28;20216;-74
2022/10/29 06:47:53;;;;;;;4.50;2.60;;;;;;;20.56;70.16;100921.19;4996906;28;20432;-75
2022/10/29 06:50:19;;;;;;;4.20;2.50;;;;;;;20.58;70.03;100925.34;5012866;28;20438;-74
2022/10/29 06:53:02;;;;;;;3.50;2.50;;;;;;;20.58;70.14;100928.22;4997201;28;20184;-75
2022/10/29 06:55:28;;;;;;;3.60;2.47;;;;;;;20.58;69.88;100936.00;5011773;28;20189;-75
2022/10/29 06:57:58;;;;;;;4.03;2.67;;;;;;;20.57;70.01;100935.16;5019788;28;20481;-74
2022/10/29 07:00:24;;;;;;;4.43;2.67;;;;;;;20.55;70.30;100929.00;4999009;28;20779;-74
2022/10/29 07:02:49;;;;;;;4.33;2.70;;;;;;;20.56;69.73;100927.78;5017318;28;20914;-74
2022/10/29 07:05:15;;;;;;;4.93;2.90;;;;;;;20.57;70.05;100929.44;5019621;28;20177;-74
2022/10/29 07:07:40;;;;;;;4.43;2.53;;;;;;;20.58;70.14;100924.53;5027810;28;20200;-74
2022/10/29 07:10:06;;;;;;;4.70;2.50;;;;;;;20.57;69.73;100938.03;5020061;28;20188;-75
2022/10/29 07:12:37;;;;;;;3.50;2.70;;;;;;;20.57;70.13;100926.56;5017945;28;20636;-75
2022/10/29 07:15:03;;;;;;;4.00;2.47;;;;;;;20.58;70.09;100919.59;4998778;28;20189;-74
2022/10/29 07:17:28;;;;;;;3.93;2.27;;;;;;;20.58;70.12;100921.66;5008742;28;20929;-74
2022/10/29 07:19:54;;;;;;;3.53;2.43;;;;;;;20.60;69.93;100924.97;5017676;28;20198;-75
2022/10/29 07:22:19;;;;;;;3.60;2.47;;;;;;;20.57;69.85;100922.88;5018581;28;21036;-74
2022/10/29 07:24:45;;;;;;;3.87;2.37;;;;;;;20.57;69.78;100929.44;5015709;28;20303;-74
2022/10/29 07:27:10;;;;;;;4.70;2.43;;;;;;;20.59;69.80;100929.06;5022346;28;20183;-74
2022/10/29 07:29:36;;;;;;;3.80;2.50;;;;;;;20.58;69.97;100931.09;4983146;28;20198;-74
2022/10/29 07:32:01;;;;;;;4.10;2.47;;;;;;;20.59;69.52;100935.63;5017452;28;20230;-74
2022/10/29 07:34:27;;;;;;;4.70;2.63;;;;;;;20.58;69.76;100936.00;5014788;28;20231;-74
2022/10/29 07:36:52;;;;;;;4.47;2.70;;;;;;;20.58;69.60;100933.94;5016983;28;20611;-74
2022/10/29 07:39:18;;;;;;;3.97;2.50;;;;;;;20.60;69.95;100950.78;5014290;28;20192;-75
2022/10/29 07:41:43;;;;;;;4.10;2.80;;;;;;;20.61;69.61;100952.44;5022356;28;20188;-75
2022/10/29 07:44:09;;;;;;;4.50;2.90;;;;;;;20.62;69.90;100949.19;5009749;28;20192;-74
2022/10/29 07:46:35;;;;;;;4.20;2.33;;;;;;;20.59;69.59;100947.13;5018751;28;20184;-75
2022/10/29 07:49:01;;;;;;;4.10;2.80;;;;;;;20.60;70.05;100934.41;5001321;28;20423;-74
2022/10/29 07:51:26;;;;;;;3.87;2.30;;;;;;;20.60;69.42;100934.41;5017905;28;20176;-74
2022/10/29 07:53:52;;;;;;;4.00;2.70;;;;;;;20.61;69.93;100940.97;5014735;28;20197;-74
2022/10/29 07:56:17;;;;;;;3.70;2.40;;;;;;;20.59;70.02;100935.63;5020054;28;20209;-74
2022/10/29 07:58:43;;;;;;;3.40;2.13;;;;;;;20.60;69.52;100934.41;5009953;28;20181;-74
2022/10/29 08:01:08;;;;;;;3.43;2.30;;;;;;;20.60;69.49;100934.41;5016523;28;20252;-74
2022/10/29 08:03:33;;;;;;;5.23;2.67;;;;;;;20.62;69.67;100936.91;4988883;28;20181;-74
2022/10/29 08:05:59;;;;;;;4.17;2.53;;;;;;;20.59;69.84;100949.97;4992868;28;20181;-74
2022/10/29 08:08:24;;;;;;;4.20;2.33;;;;;;;20.62;69.88;100942.66;5015408;28;20835;-75
2022/10/29 08:10:50;;;;;;;3.67;2.30;;;;;;;20.62;69.76;100936.91;5012597;28;20637;-74
2022/10/29 08:13:15;;;;;;;3.53;2.13;;;;;;;20.61;69.42;100938.09;5018062;28;20996;-74
2022/10/29 08:15:44;;;;;;;4.00;2.33;;;;;;;20.62;69.87;100936.91;5019994;28;20189;-74
2022/10/29 08:18:16;;;;;;;4.50;2.53;;;;;;;20.61;69.62;100941.81;5005133;28;20318;-74
2022/10/29 08:20:41;;;;;;;3.33;2.60;;;;;;;20.61;69.77;100941.81;5002677;28;20443;-74
2022/10/29 08:23:07;;;;;;;4.97;2.77;;;;;;;20.65;69.53;100941.88;5016839;28;20434;-74
2022/10/29 08:25:32;;;;;;;3.40;2.40;;;;;;;20.64;69.52;100945.97;4996162;28;20189;-74
2022/10/29 08:28:02;;;;;;;3.10;2.27;;;;;;;20.63;69.58;100938.56;5016672;28;21119;-74
2022/10/29 08:30:27;;;;;;;3.90;2.10;;;;;;;20.62;69.16;100937.72;4996477;28;20215;-74
2022/10/29 08:32:53;;;;;;;3.57;2.20;;;;;;;20.64;69.89;100940.22;5022141;28;20435;-74
2022/10/29 08:35:18;;;;;;;3.67;2.27;;;;;;;20.63;70.13;100950.03;5019284;28;20177;-74
2022/10/29 08:37:44;;;;;;;3.70;2.37;;;;;;;20.64;69.89;100948.81;5005870;28;20201;-74
2022/10/29 08:40:30;;;;;;;4.07;2.40;;;;;;;20.63;69.93;100950.03;5032637;28;20195;-73
2022/10/29 08:43:14;;;;;;;4.33;2.63;;;;;;;20.64;69.52;100943.94;5021868;28;20187;-74
2022/10/29 08:46:00;;;;;;;3.30;2.10;;;;;;;20.65;69.76;100936.97;5022847;28;20411;-74
2022/10/29 08:48:38;;;;;;;3.83;2.20;;;;;;;20.62;69.68;100943.47;5022395;28;20442;-74
2022/10/29 08:51:29;;;;;;;3.67;2.33;;;;;;;20.65;69.65;100948.47;5019087;28;20427;-74
2022/10/29 08:53:56;;;;;;;7.27;2.90;;;;;;;20.65;69.55;100942.72;5010157;28;20537;-74
2022/10/29 08:56:31;;;;;;;3.83;2.13;;;;;;;20.66;69.67;100950.13;5013303;28;20459;-74
2022/10/29 08:59:08;;;;;;;3.20;1.90;;;;;;;20.66;69.62;100944.38;5000340;28;21060;-74
2022/10/29 09:01:34;;;;;;;3.17;2.10;;;;;;;20.66;69.40;100943.53;5015441;28;21205;-74
2022/10/29 09:03:59;;;;;;;3.10;2.10;;;;;;;20.68;69.70;100944.00;5002204;28;20424;-74
2022/10/29 09:06:34;;;;;;;3.63;2.47;;;;;;;20.66;69.38;100938.63;4989002;28;20748;-74
2022/10/29 09:09:13;;;;;;;4.00;2.27;;;;;;;20.67;69.30;100931.69;5018835;28;21297;-74
2022/10/29 09:12:06;;;;;;;3.97;2.03;;;;;;;20.70;69.45;100930.94;5017910;28;20518;-75
2022/10/29 09:14:37;;;;;;;3.80;2.33;;;;;;;20.69;69.32;100932.16;5018592;28;20804;-74
2022/10/29 09:17:20;;;;;;;3.33;1.97;;;;;;;20.70;69.37;100930.09;5020926;28;20462;-74
2022/10/29 09:19:58;;;;;;;3.57;2.30;;;;;;;20.68;69.58;100923.91;5019836;28;20435;-74
2022/10/29 09:22:56;;;;;;;2.63;1.90;;;;;;;20.68;69.50;100936.19;5017542;28;20424;-73
2022/10/29 09:26:03;;;;;;;9.10;2.90;;;;;;;20.68;69.61;100927.59;5012446;28;20436;-74
2022/10/29 09:28:50;;;;;;;3.37;2.17;;;;;;;20.70;69.61;100938.69;4986606;28;20471;-74
2022/10/29 09:31:15;;;;;;;3.70;2.17;;;;;;;20.69;69.43;100937.03;5015534;28;20893;-74
2022/10/29 09:33:44;;;;;;;4.77;2.00;;;;;;;20.70;69.48;100939.53;5020125;28;20427;-74
2022/10/29 09:36:21;;;;;;;3.53;2.00;;;;;;;20.71;69.16;100941.19;5015750;28;20383;-74
2022/10/29 09:39:20;;;;;;;3.30;1.93;;;;;;;20.70;69.65;100950.19;5007691;28;20441;-74
2022/10/29 09:41:46;;;;;;;3.10;2.10;;;;;;;20.69;69.19;100937.88;5004437;28;20796;-74
2022/10/29 09:44:27;;;;;;;2.93;2.00;;;;;;;20.73;69.42;100935.06;5001505;28;20427;-74
2022/10/29 09:47:08;;;;;;;3.37;2.20;;;;;;;20.70;69.73;100939.53;5019765;28;20180;-74
2022/10/29 09:49:56;;;;;;;2.97;1.73;;;;;;;20.73;69.49;100933.03;5017453;28;20423;-74
2022/10/29 09:52:33;;;;;;;4.37;2.70;;;;;;;20.71;69.54;100935.44;5032845;28;20511;-73
2022/10/29 09:54:58;;;;;;;3.37;2.20;;;;;;;20.70;69.56;100938.69;4998184;28;20434;-75
2022/10/29 09:57:30;;;;;;;6.60;2.80;;;;;;;20.69;68.36;100939.91;5002260;28;20832;-77
2022/10/29 10:00:00;;;;;;;12.83;4.23;;;;;;;20.65;67.29;100942.72;4996669;28;20305;-79
2022/10/29 10:02:29;;;;;;;9.97;3.73;;;;;;;20.62;66.74;100934.84;4998723;28;20487;-78
2022/10/29 10:05:05;;;;;;;12.60;4.93;;;;;;;20.62;65.85;100934.84;5013528;28;20513;-77
2022/10/29 10:07:31;;;;;;;11.37;4.97;;;;;;;20.61;64.75;100938.09;4986682;28;20534;-77
2022/10/29 10:10:00;;;;;;;11.60;5.57;;;;;;;20.64;65.16;100929.59;4997663;28;20439;-76
2022/10/29 10:12:35;;;;;;;17.60;5.70;;;;;;;20.59;65.00;100918.44;4997500;28;20184;-76
2022/10/29 10:15:27;;;;;;;19.33;6.40;;;;;;;20.54;65.03;100918.72;5013310;28;20435;-76
2022/10/29 10:18:16;;;;;;;13.73;5.67;;;;;;;20.53;64.84;100911.31;5009665;28;20464;-76
2022/10/29 10:20:44;;;;;;;13.43;5.90;;;;;;;20.54;64.58;100915.03;5012811;28;20420;-77
2022/10/29 10:23:29;;;;;;;15.00;6.03;;;;;;;20.61;64.53;100918.00;4989907;28;20518;-78
2022/10/29 10:25:56;;;;;;;16.47;6.17;;;;;;;20.64;64.33;100911.53;4995025;28;20443;-78
2022/10/29 10:28:29;;;;;;;12.53;5.90;;;;;;;20.68;64.08;100907.50;5014318;28;20431;-77
2022/10/29 10:31:03;;;;;;;19.40;5.50;;;;;;;20.66;63.97;100909.94;4997047;28;20439;-77
2022/10/29 10:33:30;;;;;;;17.30;6.37;;;;;;;20.66;64.60;100906.22;5014077;28;20867;-76
2022/10/29 10:36:04;;;;;;;14.67;7.10;;;;;;;20.72;64.24;100901.88;4997055;28;20430;-77
2022/10/29 10:38:47;;;;;;;10.90;6.20;;;;;;;20.67;64.21;100900.13;5004870;28;20442;-76
2022/10/29 10:41:13;;;;;;;16.87;7.47;;;;;;;20.61;64.23;100895.06;5004557;28;20471;-76
2022/10/29 10:43:42;;;;;;;12.73;5.97;;;;;;;20.66;65.20;100889.00;5009526;28;20442;-75
2022/10/29 10:46:16;;;;;;;11.73;5.30;;;;;;;20.71;64.41;100886.66;5012742;28;20235;-77
2022/10/29 10:48:41;;;;;;;16.00;6.73;;;;;;;20.71;64.61;100882.97;5011053;28;20441;-75
2022/10/29 10:51:33;;;;;;;15.07;6.23;;;;;;;20.75;63.94;100867.47;5012724;28;20442;-77
2022/10/29 10:53:59;;;;;;;18.40;6.30;;;;;;;20.72;64.14;100871.09;5009079;28;20189;-76
2022/10/29 10:56:24;;;;;;;20.97;6.10;;;;;;;20.74;64.08;100862.13;5013645;28;20458;-74
2022/10/29 10:59:10;;;;;;;15.73;6.87;;;;;;;20.74;64.83;100860.09;5023009;28;20667;-75
2022/10/29 11:01:39;;;;;;;16.57;5.87;;;;;;;20.71;64.79;100860.84;5017139;28;20227;-76
2022/10/29 11:04:08;;;;;;;22.00;5.90;;;;;;;20.73;64.58;100857.59;5011609;28;20439;-74
2022/10/29 11:06:35;;;;;;;27.13;5.70;;;;;;;20.73;64.38;100852.66;4996011;28;21012;-74
2022/10/29 11:09:22;;;;;;;20.63;5.93;;;;;;;20.70;64.59;100847.72;5000862;28;21068;-74
2022/10/29 11:11:56;;;;;;;17.17;6.27;;;;;;;20.70;64.84;100841.13;5014778;28;20418;-74
2022/10/29 11:14:21;;;;;;;17.33;6.00;;;;;;;20.68;64.96;100844.38;5011161;28;20431;-73
2022/10/29 11:16:52;;;;;;;16.10;5.30;;;;;;;20.67;64.92;100845.59;5009864;28;20545;-74
2022/10/29 11:19:38;;;;;;;12.27;5.23;;;;;;;20.67;64.98;100836.19;4988680;28;20195;-74
2022/10/29 11:22:43;;;;;;;20.50;6.03;;;;;;;20.66;65.09;100829.59;4993979;28;20427;-74
2022/10/29 11:25:17;;;;;;;19.70;5.57;;;;;;;20.66;65.02;100823.03;5012011;28;20455;-74
2022/10/29 11:28:20;;;;;;;17.77;5.87;;;;;;;20.66;64.97;100817.28;4996887;28;20439;-74
2022/10/29 11:30:50;;;;;;;20.77;5.77;;;;;;;20.68;64.88;100818.56;5020123;28;20426;-74
2022/10/29 11:33:19;;;;;;;21.47;6.20;;;;;;;20.67;64.92;100814.03;5020775;28;20427;-74
2022/10/29 11:36:08;;;;;;;12.90;4.70;;;;;;;20.68;65.22;100801.34;5012098;28;20435;-72